Time;durP1;ratioP1;P1;durP2;ratioP2;P2;SDS_P1;SDS_P2;PMS_P1;PMS_P2;Temp;Humidity;BMP_temperature;BMP_pressure;BME280_temperature;BME280_humidity;BME280_pressure;Samples;Min_cycle;Max_cycle;Signal;HPM_P1;HPM_P2
2022/06/25 00:01:57;;;;;;;8.57;1.10;;;16.20;99.90;;;;;;4995762;28;20494;-66
2022/06/25 00:07:09;;;;;;;1.80;0.80;;;16.10;99.90;;;;;;4996111;28;20462;-65
2022/06/25 00:09:36;;;;;;;5.37;1.47;;;16.20;99.90;;;;;;4996162;28;20443;-66
2022/06/25 00:15:07;;;;;;;1.97;0.97;;;16.30;99.90;;;;;;4974569;28;20952;-66
2022/06/25 00:17:35;;;;;;;4.70;2.00;;;16.30;99.90;;;;;;4974165;28;20524;-65
2022/06/25 00:20:03;;;;;;;4.27;1.47;;;16.30;99.90;;;;;;4984016;28;20960;-65
2022/06/25 00:22:30;;;;;;;2.07;1.10;;;16.30;99.90;;;;;;4995440;28;20510;-66
2022/06/25 00:24:58;;;;;;;2.10;1.13;;;16.40;99.80;;;;;;4995527;28;20436;-66
2022/06/25 00:27:25;;;;;;;2.10;0.80;;;16.40;99.90;;;;;;4995400;28;20446;-66
2022/06/25 00:29:53;;;;;;;2.27;1.20;;;16.40;99.80;;;;;;4995505;28;20578;-65
2022/06/25 00:32:21;;;;;;;2.70;1.10;;;16.40;99.50;;;;;;4995008;28;21017;-67
2022/06/25 00:34:49;;;;;;;2.87;1.50;;;16.40;99.90;;;;;;4995646;28;20443;-66
2022/06/25 00:37:17;;;;;;;2.33;1.10;;;16.30;99.70;;;;;;4995341;28;20439;-66
2022/06/25 00:39:44;;;;;;;3.50;1.07;;;16.20;99.90;;;;;;4995821;28;20471;-66
2022/06/25 00:42:13;;;;;;;6.23;1.00;;;16.20;99.90;;;;;;4994650;28;20545;-66
2022/06/25 00:44:41;;;;;;;2.07;0.90;;;16.30;99.90;;;;;;4995297;28;20447;-71
2022/06/25 00:47:10;;;;;;;2.40;1.17;;;16.30;99.90;;;;;;4994861;28;20443;-66
2022/06/25 00:49:39;;;;;;;1.90;0.90;;;16.30;99.70;;;;;;4995725;28;20443;-66
2022/06/25 00:52:09;;;;;;;2.23;0.90;;;16.30;99.60;;;;;;4995489;28;20455;-66
2022/06/25 00:54:39;;;;;;;2.10;0.70;;;16.30;99.70;;;;;;4995093;28;20440;-66
2022/06/25 00:57:08;;;;;;;1.80;0.80;;;16.20;99.70;;;;;;4994853;28;20450;-66
2022/06/25 00:59:43;;;;;;;2.67;0.73;;;16.30;99.20;;;;;;4995506;28;20450;-65
2022/06/25 01:02:10;;;;;;;4.70;1.10;;;16.30;99.30;;;;;;4995009;28;20570;-66
2022/06/25 01:04:40;;;;;;;3.17;0.90;;;16.30;99.20;;;;;;4994677;28;20530;-65
2022/06/25 01:07:08;;;;;;;2.23;0.90;;;16.30;99.20;;;;;;4994595;28;20446;-66
2022/06/25 01:09:36;;;;;;;2.93;0.90;;;16.30;99.20;;;;;;4995359;28;20777;-65
2022/06/25 01:12:04;;;;;;;1.70;0.70;;;16.30;99.30;;;;;;4994645;28;20882;-66
2022/06/25 01:14:31;;;;;;;1.70;0.90;;;16.30;99.40;;;;;;4994915;28;20444;-66
2022/06/25 01:16:58;;;;;;;2.40;0.83;;;16.30;99.30;;;;;;4995233;28;20467;-65
2022/06/25 01:19:26;;;;;;;1.90;0.70;;;16.40;99.30;;;;;;4994336;28;20440;-66
2022/06/25 01:21:59;;;;;;;2.77;0.80;;;16.40;99.10;;;;;;4995105;28;20804;-66
2022/06/25 01:24:27;;;;;;;2.10;0.80;;;16.50;99.40;;;;;;4994486;28;20523;-66
2022/06/25 01:26:54;;;;;;;1.50;0.60;;;16.50;99.50;;;;;;4994340;28;20539;-66
2022/06/25 01:29:21;;;;;;;1.90;0.80;;;16.50;99.60;;;;;;4994360;28;20978;-66
2022/06/25 01:31:48;;;;;;;2.50;0.90;;;16.60;99.80;;;;;;4994148;28;20444;-66
2022/06/25 01:34:16;;;;;;;2.77;0.70;;;16.60;99.80;;;;;;4994947;28;20436;-66
2022/06/25 01:36:43;;;;;;;1.67;0.80;;;16.60;99.60;;;;;;4994283;28;20450;-67
2022/06/25 01:39:12;;;;;;;1.60;0.67;;;16.60;99.70;;;;;;4994353;28;20443;-67
2022/06/25 01:41:39;;;;;;;2.57;0.63;;;16.70;99.90;;;;;;4994439;28;20914;-66
2022/06/25 01:44:06;;;;;;;2.27;0.70;;;16.70;99.90;;;;;;4994570;28;20547;-66
2022/06/25 01:46:33;;;;;;;2.20;0.83;;;16.70;99.90;;;;;;4993757;28;20444;-66
2022/06/25 01:49:00;;;;;;;1.67;0.70;;;16.80;99.20;;;;;;4994278;28;20452;-66
2022/06/25 01:51:27;;;;;;;1.70;0.70;;;16.70;99.00;;;;;;4992898;28;20444;-66
2022/06/25 01:53:54;;;;;;;2.50;0.80;;;16.70;99.20;;;;;;4993734;28;20444;-66
2022/06/25 01:56:23;;;;;;;1.87;0.90;;;16.70;98.40;;;;;;4993890;28;20440;-66
2022/06/25 01:58:51;;;;;;;2.60;0.93;;;16.60;98.50;;;;;;4994206;28;20561;-67
2022/06/25 02:01:18;;;;;;;3.20;0.60;;;16.60;98.80;;;;;;4993514;28;20440;-66
2022/06/25 02:03:45;;;;;;;2.77;0.80;;;16.50;98.90;;;;;;4994111;28;20948;-68
2022/06/25 02:06:12;;;;;;;1.80;0.83;;;16.40;99.40;;;;;;4993310;28;20502;-67
2022/06/25 02:08:39;;;;;;;2.03;0.70;;;16.30;99.60;;;;;;4993903;28;20462;-66
2022/06/25 02:11:09;;;;;;;2.17;0.80;;;16.30;99.90;;;;;;4993663;28;20440;-68
2022/06/25 02:13:38;;;;;;;1.60;0.77;;;16.30;99.90;;;;;;4993928;28;20458;-66
2022/06/25 02:16:07;;;;;;;3.13;0.77;;;16.30;99.90;;;;;;4992606;28;20448;-66
2022/06/25 02:18:34;;;;;;;1.70;0.80;;;16.30;99.90;;;;;;4993707;28;20506;-66
2022/06/25 02:21:01;;;;;;;2.17;0.70;;;16.30;99.90;;;;;;4993741;28;20614;-66
2022/06/25 02:23:29;;;;;;;1.60;0.77;;;16.20;99.70;;;;;;4993879;28;20479;-66
2022/06/25 02:25:56;;;;;;;2.60;0.90;;;16.20;99.90;;;;;;4993208;28;20809;-66
2022/06/25 02:28:23;;;;;;;2.27;1.00;;;16.20;99.90;;;;;;4993398;28;20514;-66
2022/06/25 02:30:52;;;;;;;3.50;1.10;;;16.10;99.90;;;;;;4992998;28;20498;-66
2022/06/25 02:33:20;;;;;;;13.00;6.20;;;16.00;99.90;;;;;;4993605;28;20775;-67
2022/06/25 02:35:47;;;;;;;5.50;2.30;;;16.00;99.90;;;;;;4992839;28;20467;-66
2022/06/25 02:38:15;;;;;;;4.63;0.80;;;16.00;99.90;;;;;;4993213;28;20435;-66
2022/06/25 02:40:42;;;;;;;2.10;0.97;;;16.00;99.90;;;;;;4993464;28;20447;-66
2022/06/25 02:43:10;;;;;;;5.30;1.70;;;16.00;99.90;;;;;;4993346;28;20557;-66
2022/06/25 02:45:37;;;;;;;2.00;1.07;;;16.00;99.90;;;;;;4993524;28;20448;-66
2022/06/25 02:48:06;;;;;;;2.27;1.13;;;16.00;99.90;;;;;;4992745;28;20494;-66
2022/06/25 02:50:33;;;;;;;2.07;0.83;;;16.00;99.90;;;;;;4993137;28;20451;-65
2022/06/25 02:53:01;;;;;;;2.10;0.90;;;16.00;99.90;;;;;;4992718;28;20521;-66
2022/06/25 03:00:54;;;;;;;2.00;0.87;;;16.00;99.90;;;;;;4992436;28;20466;-66
2022/06/25 03:03:23;;;;;;;1.90;0.87;;;15.90;99.90;;;;;;4992675;28;20483;-70
2022/06/25 03:05:50;;;;;;;1.77;0.70;;;15.90;99.90;;;;;;4991573;28;20450;-66
2022/06/25 03:08:18;;;;;;;6.30;1.10;;;15.90;99.90;;;;;;4992505;28;20436;-66
2022/06/25 03:10:46;;;;;;;3.10;0.97;;;15.80;99.90;;;;;;4992841;28;20451;-66
2022/06/25 03:13:13;;;;;;;4.20;1.00;;;15.80;99.90;;;;;;4992477;28;20522;-66
2022/06/25 03:15:40;;;;;;;3.60;1.20;;;15.90;99.90;;;;;;4992765;28;20950;-66
2022/06/25 03:18:08;;;;;;;1.90;1.03;;;15.90;99.90;;;;;;4992326;28;20440;-66
2022/06/25 03:20:37;;;;;;;3.20;0.80;;;15.90;99.90;;;;;;4992784;28;20530;-66
2022/06/25 03:23:05;;;;;;;2.07;1.00;;;15.80;99.90;;;;;;4992409;28;20491;-66
2022/06/25 03:25:32;;;;;;;4.57;0.90;;;15.70;99.90;;;;;;4992784;28;20524;-66
2022/06/25 03:27:59;;;;;;;4.13;1.57;;;15.70;99.90;;;;;;4992158;28;20444;-66
2022/06/25 03:30:26;;;;;;;3.90;0.87;;;15.60;99.90;;;;;;4992555;28;20471;-66
2022/06/25 03:32:53;;;;;;;2.93;0.80;;;15.60;99.90;;;;;;4992344;28;20443;-66
2022/06/25 03:35:21;;;;;;;2.53;0.90;;;15.60;99.90;;;;;;4992700;28;20459;-66
2022/06/25 03:37:50;;;;;;;2.10;1.03;;;15.50;99.90;;;;;;4992215;28;20930;-66
2022/06/25 03:40:18;;;;;;;3.17;0.90;;;15.50;99.90;;;;;;4992678;28;20440;-66
2022/06/25 03:42:45;;;;;;;3.03;0.70;;;15.50;99.90;;;;;;4992304;28;20487;-66
2022/06/25 03:45:13;;;;;;;1.80;0.70;;;15.60;99.90;;;;;;4992579;28;20952;-66
2022/06/25 03:47:40;;;;;;;3.13;1.30;;;15.60;99.90;;;;;;4992382;28;20922;-66
2022/06/25 03:50:12;;;;;;;2.07;1.00;;;15.50;99.90;;;;;;4992272;28;20447;-66
2022/06/25 03:52:39;;;;;;;3.13;1.03;;;15.40;99.90;;;;;;4992467;28;20815;-66
2022/06/25 03:55:09;;;;;;;2.03;0.90;;;15.40;99.90;;;;;;4992640;28;20440;-66
2022/06/25 03:57:36;;;;;;;3.07;0.73;;;15.50;99.90;;;;;;4992334;28;20444;-66
2022/06/25 04:00:05;;;;;;;2.37;1.10;;;15.40;99.90;;;;;;4991798;28;20444;-66
2022/06/25 04:02:33;;;;;;;4.20;0.90;;;15.30;99.90;;;;;;4992028;28;21048;-65
2022/06/25 04:05:00;;;;;;;3.30;1.63;;;15.30;99.90;;;;;;4992605;28;21286;-66
2022/06/25 04:07:27;;;;;;;1.60;0.70;;;15.30;99.90;;;;;;4992236;28;20499;-66
2022/06/25 04:09:55;;;;;;;2.60;0.97;;;15.30;99.90;;;;;;4992703;28;20444;-66
2022/06/25 04:12:24;;;;;;;3.63;1.20;;;15.30;99.90;;;;;;4992218;28;20440;-66
2022/06/25 04:14:52;;;;;;;3.50;1.00;;;15.20;99.90;;;;;;4992530;28;20530;-66
2022/06/25 04:17:19;;;;;;;4.77;1.03;;;15.20;99.90;;;;;;4995484;28;20440;-66
2022/06/25 04:19:50;;;;;;;2.50;1.00;;;15.20;99.90;;;;;;4995576;28;20444;-66
2022/06/25 04:22:18;;;;;;;3.10;1.40;;;15.20;99.90;;;;;;4993005;28;20817;-66
2022/06/25 04:24:45;;;;;;;7.10;1.83;;;15.30;99.90;;;;;;4994161;28;20474;-69
2022/06/25 04:29:03;;;;;;;2.20;1.10;;;15.30;99.90;;;;;;4989692;28;20795;-66
2022/06/25 04:30:01;;;;;;;3.70;1.87;;;15.30;99.90;;;;;;4993695;28;20984;-66
2022/06/25 04:32:29;;;;;;;2.97;1.40;;;15.20;99.90;;;;;;4993991;28;20436;-66
2022/06/25 04:34:57;;;;;;;2.53;0.90;;;15.20;99.90;;;;;;4994512;28;20510;-65
2022/06/25 04:37:26;;;;;;;2.97;0.80;;;15.30;99.90;;;;;;4993598;28;20446;-66
2022/06/25 04:39:53;;;;;;;1.63;0.97;;;15.30;99.90;;;;;;4990275;28;20930;-66
2022/06/25 04:42:20;;;;;;;3.80;1.00;;;15.30;99.90;;;;;;4993679;28;20997;-66
2022/06/25 04:44:47;;;;;;;1.90;0.83;;;15.30;99.90;;;;;;4994338;28;20879;-66
2022/06/25 04:47:16;;;;;;;5.10;1.10;;;15.40;99.90;;;;;;4993783;28;20455;-67
2022/06/25 04:49:43;;;;;;;2.53;0.80;;;15.40;99.90;;;;;;4993710;28;20439;-66
2022/06/25 04:52:11;;;;;;;2.20;0.77;;;15.40;99.90;;;;;;4994232;28;20813;-67
2022/06/25 04:54:38;;;;;;;2.57;0.90;;;15.40;99.90;;;;;;4993679;28;20482;-66
2022/06/25 04:57:06;;;;;;;2.60;1.00;;;15.40;99.90;;;;;;4993841;28;20791;-66
2022/06/25 04:59:33;;;;;;;1.53;0.73;;;15.40;99.90;;;;;;4993637;28;20440;-66
2022/06/25 05:02:01;;;;;;;3.63;1.00;;;15.50;99.90;;;;;;4993780;28;20450;-66
2022/06/25 05:04:30;;;;;;;2.70;0.87;;;15.50;99.90;;;;;;4992880;28;20480;-67
2022/06/25 05:06:58;;;;;;;2.27;1.10;;;15.50;99.90;;;;;;4989153;28;20946;-66
2022/06/25 05:09:26;;;;;;;1.80;1.00;;;15.60;99.90;;;;;;4993745;28;20448;-66
2022/06/25 05:11:54;;;;;;;2.03;1.10;;;15.70;99.90;;;;;;4993239;28;20440;-66
2022/06/25 05:14:21;;;;;;;2.50;1.30;;;15.70;99.90;;;;;;4992973;28;20436;-66
2022/06/25 05:16:48;;;;;;;6.47;1.13;;;15.80;99.90;;;;;;4993099;28;20535;-66
2022/06/25 05:19:16;;;;;;;3.50;2.07;;;15.90;99.90;;;;;;4993393;28;20446;-66
2022/06/25 05:21:45;;;;;;;2.17;1.00;;;15.90;99.90;;;;;;4992699;28;20452;-68
2022/06/25 05:24:12;;;;;;;2.07;1.07;;;16.00;99.90;;;;;;4989307;28;20537;-66
2022/06/25 05:26:39;;;;;;;1.80;1.00;;;16.10;99.90;;;;;;4992973;28;20447;-66
2022/06/25 05:29:06;;;;;;;2.00;0.90;;;16.10;99.90;;;;;;4992380;28;20475;-66
2022/06/25 05:31:34;;;;;;;1.90;0.90;;;16.20;99.90;;;;;;4992413;28;20436;-67
2022/06/25 05:34:01;;;;;;;2.10;0.90;;;16.30;99.90;;;;;;4993196;28;20455;-66
2022/06/25 05:36:28;;;;;;;2.30;1.00;;;16.40;99.90;;;;;;4992830;28;21106;-66
2022/06/25 05:38:57;;;;;;;2.00;0.83;;;16.50;99.90;;;;;;4993182;28;20795;-66
2022/06/25 05:41:24;;;;;;;1.90;0.90;;;16.60;99.90;;;;;;4992366;28;20440;-66
2022/06/25 05:43:52;;;;;;;2.27;1.20;;;16.70;99.90;;;;;;4992847;28;20570;-66
2022/06/25 05:46:19;;;;;;;2.57;1.13;;;16.80;99.90;;;;;;4992542;28;20436;-66
2022/06/25 05:48:46;;;;;;;3.63;1.00;;;16.90;99.90;;;;;;4992915;28;20450;-66
2022/06/25 05:51:13;;;;;;;1.47;0.60;;;17.00;99.90;;;;;;4992274;28;20490;-70
2022/06/25 05:53:40;;;;;;;1.90;1.00;;;17.10;99.90;;;;;;4993111;28;20808;-66
2022/06/25 05:56:09;;;;;;;7.23;1.50;;;17.20;99.90;;;;;;4992682;28;20988;-66
2022/06/25 05:58:37;;;;;;;2.33;1.20;;;17.30;99.90;;;;;;4992122;28;20452;-67
2022/06/25 06:01:04;;;;;;;4.03;0.90;;;17.40;99.90;;;;;;4988753;28;20900;-66
2022/06/25 06:03:31;;;;;;;3.33;0.97;;;17.50;99.90;;;;;;4992112;28;20486;-66
2022/06/25 06:05:59;;;;;;;1.87;0.90;;;17.50;99.90;;;;;;4992742;28;20440;-66
2022/06/25 06:08:26;;;;;;;2.17;1.00;;;17.60;99.90;;;;;;4991581;28;20443;-66
2022/06/25 06:10:54;;;;;;;4.80;1.40;;;17.60;99.70;;;;;;4992094;28;20498;-66
2022/06/25 06:13:25;;;;;;;3.00;0.83;;;17.70;99.90;;;;;;4992127;28;20840;-66
2022/06/25 06:15:52;;;;;;;8.60;1.20;;;17.80;98.70;;;;;;4992202;28;20439;-68
2022/06/25 06:18:19;;;;;;;2.27;1.13;;;17.90;98.90;;;;;;4987740;28;20530;-66
2022/06/25 06:20:47;;;;;;;2.00;0.80;;;17.90;98.20;;;;;;4992391;28;20448;-66
2022/06/25 06:23:14;;;;;;;2.00;0.80;;;17.90;98.30;;;;;;4991733;28;20884;-66
2022/06/25 06:25:42;;;;;;;1.73;0.83;;;18.00;98.00;;;;;;4991367;28;20926;-68
2022/06/25 06:28:09;;;;;;;1.60;0.70;;;18.00;98.10;;;;;;4991748;28;20528;-66
2022/06/25 06:30:38;;;;;;;2.13;1.37;;;18.10;97.10;;;;;;4992023;28;20475;-66
2022/06/25 06:33:05;;;;;;;2.60;1.10;;;18.10;97.70;;;;;;4991857;28;20443;-66
2022/06/25 06:35:32;;;;;;;2.50;1.17;;;18.10;98.00;;;;;;4991874;28;20450;-66
2022/06/25 06:38:00;;;;;;;2.87;1.30;;;18.20;98.00;;;;;;4991331;28;20471;-66
2022/06/25 06:40:28;;;;;;;5.43;0.90;;;18.20;97.30;;;;;;4989586;28;20462;-66
2022/06/25 06:42:56;;;;;;;2.33;0.83;;;18.20;97.40;;;;;;4991633;28;20993;-66
2022/06/25 06:45:23;;;;;;;4.50;1.43;;;18.40;97.40;;;;;;4989366;28;20872;-66
2022/06/25 06:47:52;;;;;;;3.60;1.10;;;18.50;97.70;;;;;;4992006;28;20447;-66
2022/06/25 06:50:19;;;;;;;1.87;0.70;;;18.60;98.30;;;;;;4991701;28;20475;-66
2022/06/25 06:52:46;;;;;;;2.00;1.00;;;18.80;97.30;;;;;;4991349;28;20447;-67
2022/06/25 06:55:13;;;;;;;4.10;1.13;;;18.80;96.90;;;;;;4991273;28;20934;-66
2022/06/25 06:57:41;;;;;;;1.73;0.70;;;18.90;97.40;;;;;;4991719;28;20443;-71
2022/06/25 07:00:10;;;;;;;1.73;0.70;;;19.00;97.30;;;;;;4990532;28;20447;-66
2022/06/25 07:02:37;;;;;;;2.73;0.70;;;19.10;97.20;;;;;;4991036;28;20870;-66
2022/06/25 07:05:07;;;;;;;3.53;1.30;;;19.20;97.20;;;;;;4991672;28;20487;-67
2022/06/25 07:07:34;;;;;;;4.37;2.13;;;19.30;97.40;;;;;;4990812;28;20447;-68
2022/06/25 07:10:04;;;;;;;3.27;1.10;;;19.40;96.90;;;;;;4991314;28;20440;-67
2022/06/25 07:12:31;;;;;;;1.80;0.80;;;19.50;95.60;;;;;;4989607;28;20451;-66
2022/06/25 07:14:59;;;;;;;2.47;1.20;;;19.60;95.70;;;;;;4990592;28;20451;-69
2022/06/25 07:17:26;;;;;;;1.60;0.60;;;19.70;95.90;;;;;;4991576;28;20447;-67
2022/06/25 07:19:53;;;;;;;1.90;0.80;;;19.90;95.90;;;;;;4991155;28;20506;-66
2022/06/25 07:22:22;;;;;;;2.73;0.70;;;20.00;95.50;;;;;;4990783;28;20497;-66
2022/06/25 07:24:51;;;;;;;1.67;0.70;;;20.10;95.40;;;;;;4991485;28;20485;-67
2022/06/25 07:27:18;;;;;;;2.23;0.97;;;20.20;95.20;;;;;;4990862;28;20444;-67
2022/06/25 07:29:47;;;;;;;1.80;0.80;;;20.30;94.80;;;;;;4991100;28;20495;-67
2022/06/25 07:32:15;;;;;;;3.30;1.00;;;20.40;94.60;;;;;;4991011;28;20443;-68
2022/06/25 07:34:42;;;;;;;1.70;0.70;;;20.50;94.50;;;;;;4991565;28;20451;-67
2022/06/25 07:37:09;;;;;;;2.63;0.80;;;20.60;94.20;;;;;;4990772;28;20479;-66
2022/06/25 07:39:38;;;;;;;2.23;1.00;;;20.80;94.10;;;;;;4990580;28;20467;-66
2022/06/25 07:42:06;;;;;;;2.10;1.00;;;21.00;94.10;;;;;;4990587;28;20447;-67
2022/06/25 07:44:34;;;;;;;2.10;0.80;;;21.10;93.80;;;;;;4990308;28;20878;-69
2022/06/25 07:47:01;;;;;;;2.30;0.83;;;21.20;92.10;;;;;;4986779;28;20954;-67
2022/06/25 07:49:30;;;;;;;1.60;0.60;;;21.30;92.40;;;;;;4991491;28;20443;-66
2022/06/25 07:51:56;;;;;;;1.87;0.80;;;21.40;92.40;;;;;;4993415;28;20448;-67
2022/06/25 07:54:29;;;;;;;1.70;0.67;;;21.60;92.20;;;;;;4993912;28;20432;-66
2022/06/25 07:56:58;;;;;;;2.17;0.90;;;21.70;90.90;;;;;;4995051;28;20443;-66
2022/06/25 07:59:28;;;;;;;2.00;0.90;;;21.80;90.20;;;;;;4994229;28;20444;-67
2022/06/25 08:01:56;;;;;;;1.80;0.90;;;22.00;90.40;;;;;;4994762;28;20486;-68
2022/06/25 08:04:23;;;;;;;2.00;1.00;;;22.30;90.30;;;;;;4994330;28;20486;-67
2022/06/25 08:06:50;;;;;;;2.67;0.60;;;22.50;89.20;;;;;;4994750;28;20437;-67
2022/06/25 08:09:18;;;;;;;1.70;0.60;;;22.60;89.50;;;;;;4993733;28;20920;-67
2022/06/25 08:11:45;;;;;;;1.60;0.50;;;22.80;88.20;;;;;;4994715;28;20444;-67
2022/06/25 08:14:14;;;;;;;2.37;0.70;;;22.80;85.60;;;;;;4994332;28;20441;-67
2022/06/25 08:16:42;;;;;;;1.70;0.70;;;22.90;85.70;;;;;;4994695;28;20456;-67
2022/06/25 08:19:09;;;;;;;1.70;0.70;;;23.00;85.20;;;;;;4994225;28;20469;-67
2022/06/25 08:21:37;;;;;;;2.00;0.60;;;23.10;84.00;;;;;;4994572;28;20441;-67
2022/06/25 08:24:05;;;;;;;2.10;0.70;;;23.30;84.70;;;;;;4994317;28;20487;-67
2022/06/25 08:26:33;;;;;;;1.80;0.70;;;23.40;83.60;;;;;;4994191;28;20447;-67
2022/06/25 08:29:05;;;;;;;1.80;0.77;;;23.50;83.10;;;;;;4994111;28;20470;-67
2022/06/25 08:31:34;;;;;;;1.50;0.50;;;23.60;78.30;;;;;;4994275;28;20482;-67
2022/06/25 08:34:02;;;;;;;1.80;0.80;;;23.60;78.30;;;;;;4994333;28;20482;-67
2022/06/25 08:36:29;;;;;;;1.60;0.70;;;23.70;77.70;;;;;;4993462;28;20517;-67
2022/06/25 08:38:57;;;;;;;1.50;0.60;;;23.80;75.60;;;;;;4994230;28;20955;-72
2022/06/25 08:41:27;;;;;;;1.47;0.50;;;24.00;77.30;;;;;;4994136;28;20794;-67
2022/06/25 08:43:55;;;;;;;1.60;0.80;;;23.90;72.40;;;;;;4993680;28;20537;-68
2022/06/25 08:46:23;;;;;;;1.90;0.70;;;24.00;72.60;;;;;;4993546;28;20442;-67
2022/06/25 08:48:57;;;;;;;2.17;0.70;;;24.00;73.20;;;;;;4994191;28;20489;-68
2022/06/25 08:51:27;;;;;;;1.60;0.60;;;24.00;70.60;;;;;;4993191;28;20434;-68
2022/06/25 08:53:56;;;;;;;1.80;0.90;;;24.10;71.70;;;;;;4994031;28;20449;-68
2022/06/25 08:56:25;;;;;;;1.80;0.70;;;24.10;67.60;;;;;;4993426;28;20439;-67
2022/06/25 08:58:58;;;;;;;1.50;0.60;;;24.10;67.00;;;;;;4993554;28;20949;-68
2022/06/25 09:01:25;;;;;;;2.33;0.60;;;24.10;66.30;;;;;;4993372;28;20453;-67
2022/06/25 09:03:54;;;;;;;1.53;0.63;;;24.30;65.40;;;;;;4994013;28;20515;-67
2022/06/25 09:06:22;;;;;;;2.00;0.70;;;24.40;63.10;;;;;;4993054;28;20994;-67
2022/06/25 09:09:09;;;;;;;2.40;0.87;;;24.50;62.10;;;;;;4993755;28;20455;-68
2022/06/25 09:11:53;;;;;;;2.13;0.80;;;24.50;62.70;;;;;;4993180;28;20442;-67
2022/06/25 09:14:22;;;;;;;1.70;0.67;;;24.50;63.00;;;;;;4993190;28;20797;-67
2022/06/25 09:17:04;;;;;;;2.10;0.60;;;24.60;64.30;;;;;;4989266;28;20479;-69
2022/06/25 09:19:36;;;;;;;1.70;0.70;;;24.70;62.40;;;;;;4993137;28;20514;-67
2022/06/25 09:22:07;;;;;;;1.60;0.70;;;24.80;63.00;;;;;;4989855;28;20443;-67
2022/06/25 09:24:45;;;;;;;2.20;0.63;;;24.90;63.70;;;;;;4992881;28;20479;-68
2022/06/25 09:27:13;;;;;;;1.67;0.50;;;24.90;62.90;;;;;;4989363;28;20459;-68
2022/06/25 09:29:42;;;;;;;1.80;0.60;;;25.00;60.70;;;;;;4992732;28;20558;-68
2022/06/25 09:32:11;;;;;;;1.80;0.70;;;25.00;58.70;;;;;;4993101;28;20431;-67
2022/06/25 09:34:40;;;;;;;1.80;0.70;;;24.90;57.60;;;;;;4992848;28;20467;-67
2022/06/25 09:37:26;;;;;;;1.67;0.53;;;24.80;57.60;;;;;;4993322;28;20447;-68
2022/06/25 09:40:04;;;;;;;1.70;0.70;;;24.90;59.20;;;;;;4985278;28;20438;-68
2022/06/25 09:42:33;;;;;;;1.60;0.60;;;25.00;57.40;;;;;;4994731;28;20454;-67
2022/06/25 09:45:07;;;;;;;2.63;0.90;;;25.10;58.60;;;;;;4989255;28;20484;-68
2022/06/25 09:47:39;;;;;;;1.80;0.70;;;25.10;57.00;;;;;;4990997;28;20440;-68
2022/06/25 09:50:14;;;;;;;1.50;0.60;;;25.20;57.60;;;;;;4990073;28;20452;-68
2022/06/25 09:52:53;;;;;;;2.07;0.63;;;25.20;54.80;;;;;;4989880;28;20454;-68
2022/06/25 09:55:22;;;;;;;1.70;0.70;;;25.20;54.70;;;;;;4989595;28;20439;-68
2022/06/25 09:57:51;;;;;;;1.70;0.83;;;25.30;55.70;;;;;;4996906;28;20442;-68
2022/06/25 10:00:19;;;;;;;1.50;0.60;;;25.40;56.00;;;;;;5001718;28;20999;-70
2022/06/25 10:02:48;;;;;;;1.70;0.70;;;25.30;56.10;;;;;;4996867;28;20439;-69
2022/06/25 10:05:22;;;;;;;1.60;0.70;;;25.30;56.90;;;;;;4990914;28;20586;-69
2022/06/25 10:08:01;;;;;;;2.97;0.80;;;25.30;54.50;;;;;;4999399;28;20435;-72
2022/06/25 10:10:32;;;;;;;1.60;0.60;;;25.20;56.00;;;;;;4989369;28;20938;-68
2022/06/25 10:12:59;;;;;;;1.87;0.60;;;25.30;54.90;;;;;;4994923;28;20534;-68
2022/06/25 10:15:27;;;;;;;1.60;0.70;;;25.40;56.40;;;;;;4989563;28;20443;-68
2022/06/25 10:17:56;;;;;;;1.60;0.60;;;25.40;53.50;;;;;;4991342;28;21303;-68
2022/06/25 10:20:25;;;;;;;2.03;0.73;;;25.40;54.60;;;;;;4994996;28;20462;-68
2022/06/25 10:22:54;;;;;;;3.50;0.70;;;25.50;55.10;;;;;;4998910;28;21033;-68
2022/06/25 10:25:25;;;;;;;2.63;0.73;;;25.40;54.70;;;;;;4995331;28;20486;-68
2022/06/25 10:28:04;;;;;;;1.70;0.70;;;25.40;53.90;;;;;;4990819;28;20452;-71
2022/06/25 10:30:46;;;;;;;1.70;0.70;;;25.40;53.60;;;;;;4992350;28;20505;-69
2022/06/25 10:33:14;;;;;;;1.60;0.60;;;25.50;54.20;;;;;;4994851;28;20450;-68
2022/06/25 10:35:44;;;;;;;1.77;0.63;;;25.60;53.80;;;;;;4989723;28;20452;-68
2022/06/25 10:38:13;;;;;;;1.70;0.60;;;25.60;52.70;;;;;;4992192;28;20440;-68
2022/06/25 10:40:55;;;;;;;1.83;0.70;;;25.70;54.60;;;;;;4992565;28;20794;-68
2022/06/25 10:43:39;;;;;;;1.70;0.77;;;25.70;56.60;;;;;;4987530;28;20530;-68
2022/06/25 10:46:31;;;;;;;1.53;0.60;;;25.80;56.70;;;;;;4991044;28;20864;-68
2022/06/25 10:49:08;;;;;;;2.23;0.70;;;25.90;56.00;;;;;;4993078;28;20438;-68
2022/06/25 10:51:44;;;;;;;1.70;0.70;;;26.00;56.30;;;;;;4991532;28;20450;-68
2022/06/25 10:54:33;;;;;;;1.70;0.60;;;26.00;49.50;;;;;;4990436;28;20447;-68
2022/06/25 10:57:02;;;;;;;1.70;0.70;;;25.90;51.50;;;;;;4989051;28;20447;-68
2022/06/25 10:59:47;;;;;;;3.20;0.90;;;25.90;53.30;;;;;;4989555;28;20454;-68
2022/06/25 11:02:16;;;;;;;1.90;0.80;;;26.00;53.70;;;;;;4988878;28;20511;-68
2022/06/25 11:04:49;;;;;;;1.90;0.70;;;26.00;50.00;;;;;;4990753;28;20479;-68
2022/06/25 11:07:20;;;;;;;1.73;0.60;;;25.90;47.70;;;;;;4987403;28;20440;-68
2022/06/25 11:09:57;;;;;;;2.07;0.90;;;26.00;50.50;;;;;;4994003;28;20447;-68
2022/06/25 11:12:25;;;;;;;2.10;0.70;;;26.00;49.50;;;;;;4990182;28;20800;-68
2022/06/25 11:15:03;;;;;;;1.80;0.80;;;26.10;50.00;;;;;;4985979;28;20448;-68
2022/06/25 11:17:31;;;;;;;5.20;0.97;;;26.10;51.80;;;;;;4989853;28;20784;-67
2022/06/25 11:20:04;;;;;;;1.97;0.80;;;26.10;52.20;;;;;;4983843;28;20798;-69
2022/06/25 11:22:34;;;;;;;1.70;0.60;;;26.20;53.00;;;;;;4987196;28;20494;-68
2022/06/25 11:30:33;;;;;;;2.80;0.70;;;26.30;52.50;;;;;;4990729;28;20467;-70
2022/06/25 11:33:03;;;;;;;2.30;0.80;;;26.30;51.60;;;;;;4992141;28;20435;-68
2022/06/25 11:35:39;;;;;;;1.73;0.80;;;26.40;53.00;;;;;;4986827;28;20555;-73
2022/06/25 11:38:16;;;;;;;1.70;0.70;;;26.50;53.50;;;;;;4995666;28;20993;-68
2022/06/25 11:40:45;;;;;;;2.53;1.10;;;26.70;50.60;;;;;;4989983;28;20451;-69
2022/06/25 11:43:15;;;;;;;2.87;1.33;;;26.70;50.80;;;;;;4988745;28;20506;-68
2022/06/25 11:45:53;;;;;;;1.80;0.67;;;26.80;50.90;;;;;;4988771;28;20909;-67
2022/06/25 11:48:20;;;;;;;1.60;0.60;;;26.80;50.30;;;;;;4988684;28;20443;-69
2022/06/25 11:50:48;;;;;;;1.70;0.70;;;26.80;51.80;;;;;;4992046;28;21288;-68
2022/06/25 11:53:17;;;;;;;1.60;0.60;;;26.90;52.80;;;;;;4991125;28;20447;-69
2022/06/25 11:55:57;;;;;;;1.80;0.73;;;26.90;51.20;;;;;;4993850;28;20486;-68
2022/06/25 11:58:26;;;;;;;1.80;0.60;;;26.90;50.30;;;;;;4993312;28;20443;-68
2022/06/25 12:00:57;;;;;;;1.80;0.70;;;26.90;51.20;;;;;;4990789;28;20454;-68
2022/06/25 12:03:28;;;;;;;1.80;0.70;;;26.90;51.30;;;;;;4989519;28;20439;-68
2022/06/25 12:05:56;;;;;;;3.87;0.60;;;26.90;50.30;;;;;;4993094;28;20537;-68
2022/06/25 12:08:29;;;;;;;3.23;0.70;;;26.80;48.30;;;;;;4992648;28;20470;-67
2022/06/25 12:10:59;;;;;;;2.20;1.03;;;26.80;49.50;;;;;;4992503;28;20523;-68
2022/06/25 12:13:29;;;;;;;1.80;0.70;;;26.70;50.90;;;;;;4992870;28;20527;-69
2022/06/25 12:16:00;;;;;;;1.50;0.60;;;26.80;50.40;;;;;;4993252;28;20443;-67
2022/06/25 12:18:34;;;;;;;1.70;0.73;;;26.70;51.70;;;;;;4992750;28;20895;-68
2022/06/25 12:21:02;;;;;;;1.90;0.70;;;26.70;51.60;;;;;;4992706;28;20443;-68
2022/06/25 12:23:49;;;;;;;1.60;0.70;;;26.70;53.50;;;;;;4992377;28;20443;-68
2022/06/25 12:26:25;;;;;;;1.70;0.80;;;26.80;52.90;;;;;;4991435;28;20475;-69
2022/06/25 12:28:52;;;;;;;3.30;0.80;;;26.90;52.40;;;;;;4990311;28;20471;-68
2022/06/25 12:31:21;;;;;;;1.80;0.83;;;27.00;53.60;;;;;;4996005;28;20473;-69
2022/06/25 12:33:51;;;;;;;1.80;0.80;;;27.10;51.10;;;;;;4994227;28;20430;-68
2022/06/25 12:36:21;;;;;;;3.17;0.97;;;27.30;51.00;;;;;;4991706;28;20451;-68
2022/06/25 12:38:49;;;;;;;1.63;0.80;;;27.40;50.50;;;;;;4991247;28;20444;-68
2022/06/25 12:41:17;;;;;;;1.60;0.70;;;27.50;49.60;;;;;;4991970;28;20522;-68
2022/06/25 12:43:45;;;;;;;2.83;0.80;;;27.50;49.40;;;;;;4992199;28;20976;-68
2022/06/25 12:46:13;;;;;;;1.77;0.70;;;27.50;48.70;;;;;;4997853;28;20558;-68
2022/06/25 12:48:46;;;;;;;3.60;0.80;;;27.40;48.90;;;;;;4991513;28;20533;-68
2022/06/25 12:51:16;;;;;;;2.20;1.33;;;27.40;50.30;;;;;;4987174;28;20781;-68
2022/06/25 12:53:45;;;;;;;1.90;0.90;;;27.30;52.10;;;;;;4991297;28;20436;-68
2022/06/25 12:56:15;;;;;;;1.70;0.60;;;27.20;51.00;;;;;;4994615;28;20784;-68
2022/06/25 12:58:44;;;;;;;2.67;0.60;;;27.10;52.80;;;;;;4993664;28;20483;-67
2022/06/25 13:01:22;;;;;;;1.50;0.70;;;27.10;52.70;;;;;;4987837;28;20989;-68
2022/06/25 13:03:56;;;;;;;2.00;0.73;;;27.10;52.20;;;;;;4989802;28;20505;-67
2022/06/25 13:06:28;;;;;;;2.00;0.70;;;27.10;52.00;;;;;;4990413;28;20482;-68
2022/06/25 13:08:55;;;;;;;1.70;0.50;;;27.10;47.90;;;;;;4993844;28;20467;-68
2022/06/25 13:11:24;;;;;;;1.93;0.93;;;27.10;46.90;;;;;;4992225;28;20502;-68
2022/06/25 13:13:53;;;;;;;2.23;0.80;;;27.00;49.60;;;;;;4993338;28;20952;-71
2022/06/25 13:16:22;;;;;;;2.33;0.80;;;26.90;49.10;;;;;;4988135;28;20443;-68